Terminal Aerodrome Forecast
Issued by NWS Melbourne, FL

Home | Current Version | Previous Version | Text Only | Print | Product List | Glossary On
Versions: 1 2 3 4 5 6 7 8 9 10 11 12 13 14 15 16 17
000
FTUS42 KMLB 202351
TAFDAB
TAF
KDAB 202351Z 2100/2124 33004KT P6SM VCSH FEW035 SCT060 BKN100
      TEMPO 2100/2102 -RA BKN060
     FM210200 VRB03KT P6SM SCT040 SCT100 BKN120
     FM210800 00000KT 4SM BR BKN010
     FM211400 29005KT P6SM SCT015 BKN150
     FM211800 04008KT P6SM SCT030 BKN150=

USA.gov is the U.S. government's official web portal to all federal, state and local government web resources and services.